sensor_id;sensor_type;location;lat;lon;timestamp;temperature;humidity
23579;DHT22;11967;50.852;4.400;2023-04-16T00:02:18;14.40;99.90
23579;DHT22;11967;50.852;4.400;2023-04-16T00:04:43;14.30;99.90
23579;DHT22;11967;50.852;4.400;2023-04-16T00:07:09;14.40;99.90
23579;DHT22;11967;50.852;4.400;2023-04-16T00:09:35;14.40;99.90
23579;DHT22;11967;50.852;4.400;2023-04-16T00:12:00;14.40;99.90
23579;DHT22;11967;50.852;4.400;2023-04-16T00:14:26;14.50;99.90
23579;DHT22;11967;50.852;4.400;2023-04-16T00:16:51;14.40;99.90
23579;DHT22;11967;50.852;4.400;2023-04-16T00:19:18;14.30;99.90
23579;DHT22;11967;50.852;4.400;2023-04-16T00:21:45;14.30;99.90
23579;DHT22;11967;50.852;4.400;2023-04-16T00:24:10;14.20;99.90
23579;DHT22;11967;50.852;4.400;2023-04-16T00:26:36;14.20;99.90
23579;DHT22;11967;50.852;4.400;2023-04-16T00:29:02;14.30;99.90
23579;DHT22;11967;50.852;4.400;2023-04-16T00:31:29;14.20;99.90
23579;DHT22;11967;50.852;4.400;2023-04-16T00:33:55;14.10;99.90
23579;DHT22;11967;50.852;4.400;2023-04-16T00:36:25;14.20;99.90
23579;DHT22;11967;50.852;4.400;2023-04-16T00:38:52;14.30;99.90
23579;DHT22;11967;50.852;4.400;2023-04-16T00:41:18;14.20;99.90
23579;DHT22;11967;50.852;4.400;2023-04-16T00:43:45;14.10;99.90
23579;DHT22;11967;50.852;4.400;2023-04-16T00:46:11;14.20;99.90
23579;DHT22;11967;50.852;4.400;2023-04-16T00:48:39;14.20;99.90
23579;DHT22;11967;50.852;4.400;2023-04-16T00:51:08;14.30;99.90
23579;DHT22;11967;50.852;4.400;2023-04-16T00:53:34;14.30;99.90
23579;DHT22;11967;50.852;4.400;2023-04-16T00:56:02;14.30;99.90
23579;DHT22;11967;50.852;4.400;2023-04-16T00:58:29;14.20;99.90
23579;DHT22;11967;50.852;4.400;2023-04-16T01:00:56;14.20;99.90
23579;DHT22;11967;50.852;4.400;2023-04-16T01:03:23;14.20;99.90
23579;DHT22;11967;50.852;4.400;2023-04-16T01:05:51;14.30;99.90
23579;DHT22;11967;50.852;4.400;2023-04-16T01:08:20;14.30;99.90
23579;DHT22;11967;50.852;4.400;2023-04-16T01:10:47;14.10;99.90
23579;DHT22;11967;50.852;4.400;2023-04-16T01:13:13;14.00;99.90
23579;DHT22;11967;50.852;4.400;2023-04-16T01:15:39;14.10;99.90
23579;DHT22;11967;50.852;4.400;2023-04-16T01:18:14;14.20;99.90
23579;DHT22;11967;50.852;4.400;2023-04-16T01:20:40;14.20;99.90
23579;DHT22;11967;50.852;4.400;2023-04-16T01:23:06;14.20;99.90
23579;DHT22;11967;50.852;4.400;2023-04-16T01:25:31;14.10;99.90
23579;DHT22;11967;50.852;4.400;2023-04-16T01:27:57;14.10;99.90
23579;DHT22;11967;50.852;4.400;2023-04-16T01:30:24;14.10;99.90
23579;DHT22;11967;50.852;4.400;2023-04-16T01:32:49;14.10;99.90
23579;DHT22;11967;50.852;4.400;2023-04-16T01:35:15;14.10;99.90
23579;DHT22;11967;50.852;4.400;2023-04-16T01:37:42;14.10;99.90
23579;DHT22;11967;50.852;4.400;2023-04-16T01:40:08;14.10;99.90
23579;DHT22;11967;50.852;4.400;2023-04-16T01:42:34;14.10;99.90
23579;DHT22;11967;50.852;4.400;2023-04-16T01:45:00;14.10;99.90
23579;DHT22;11967;50.852;4.400;2023-04-16T01:47:26;14.10;99.90
23579;DHT22;11967;50.852;4.400;2023-04-16T01:49:51;14.10;99.90
23579;DHT22;11967;50.852;4.400;2023-04-16T01:52:17;14.10;99.90
23579;DHT22;11967;50.852;4.400;2023-04-16T01:54:43;14.10;99.90
23579;DHT22;11967;50.852;4.400;2023-04-16T01:57:08;14.00;99.90
23579;DHT22;11967;50.852;4.400;2023-04-16T01:59:34;14.10;99.90
23579;DHT22;11967;50.852;4.400;2023-04-16T02:02:11;14.00;99.90
23579;DHT22;11967;50.852;4.400;2023-04-16T02:04:41;14.10;99.90
23579;DHT22;11967;50.852;4.400;2023-04-16T02:07:07;14.00;99.90
23579;DHT22;11967;50.852;4.400;2023-04-16T02:09:34;13.90;99.90
23579;DHT22;11967;50.852;4.400;2023-04-16T02:12:00;13.90;99.90
23579;DHT22;11967;50.852;4.400;2023-04-16T02:14:32;13.90;99.90
23579;DHT22;11967;50.852;4.400;2023-04-16T02:16:58;13.90;99.90
23579;DHT22;11967;50.852;4.400;2023-04-16T02:19:24;13.90;99.90
23579;DHT22;11967;50.852;4.400;2023-04-16T02:21:51;13.90;99.90
23579;DHT22;11967;50.852;4.400;2023-04-16T02:24:17;14.00;99.90
23579;DHT22;11967;50.852;4.400;2023-04-16T02:26:43;14.00;99.90
23579;DHT22;11967;50.852;4.400;2023-04-16T02:29:09;14.10;99.90
23579;DHT22;11967;50.852;4.400;2023-04-16T02:31:35;14.00;99.90
23579;DHT22;11967;50.852;4.400;2023-04-16T02:34:01;14.00;99.90
23579;DHT22;11967;50.852;4.400;2023-04-16T02:36:26;13.90;99.90
23579;DHT22;11967;50.852;4.400;2023-04-16T02:38:52;13.90;99.90
23579;DHT22;11967;50.852;4.400;2023-04-16T02:41:18;14.00;99.90
23579;DHT22;11967;50.852;4.400;2023-04-16T02:43:43;14.00;99.90
23579;DHT22;11967;50.852;4.400;2023-04-16T02:46:09;14.00;99.90
23579;DHT22;11967;50.852;4.400;2023-04-16T02:48:35;13.90;99.90
23579;DHT22;11967;50.852;4.400;2023-04-16T02:51:00;13.90;99.90
23579;DHT22;11967;50.852;4.400;2023-04-16T02:53:26;13.90;99.90
23579;DHT22;11967;50.852;4.400;2023-04-16T02:55:53;14.00;99.90
23579;DHT22;11967;50.852;4.400;2023-04-16T02:58:20;14.00;99.90
23579;DHT22;11967;50.852;4.400;2023-04-16T03:00:46;14.10;99.90
23579;DHT22;11967;50.852;4.400;2023-04-16T03:03:12;14.30;99.90
23579;DHT22;11967;50.852;4.400;2023-04-16T03:05:38;14.30;99.90
23579;DHT22;11967;50.852;4.400;2023-04-16T03:08:04;14.30;99.90
23579;DHT22;11967;50.852;4.400;2023-04-16T03:10:30;14.30;99.90
23579;DHT22;11967;50.852;4.400;2023-04-16T03:12:55;14.20;99.90
23579;DHT22;11967;50.852;4.400;2023-04-16T03:15:21;14.20;99.90
23579;DHT22;11967;50.852;4.400;2023-04-16T03:17:47;14.10;99.90
23579;DHT22;11967;50.852;4.400;2023-04-16T03:20:12;14.20;99.90
23579;DHT22;11967;50.852;4.400;2023-04-16T03:22:39;14.10;99.90
23579;DHT22;11967;50.852;4.400;2023-04-16T03:25:06;14.00;99.90
23579;DHT22;11967;50.852;4.400;2023-04-16T03:27:32;14.00;99.90
23579;DHT22;11967;50.852;4.400;2023-04-16T03:29:58;14.10;99.90
23579;DHT22;11967;50.852;4.400;2023-04-16T03:32:23;14.10;99.90
23579;DHT22;11967;50.852;4.400;2023-04-16T03:34:49;14.10;99.90
23579;DHT22;11967;50.852;4.400;2023-04-16T03:37:15;14.00;99.90
23579;DHT22;11967;50.852;4.400;2023-04-16T03:39:41;14.00;99.90
23579;DHT22;11967;50.852;4.400;2023-04-16T03:42:06;14.00;99.90
23579;DHT22;11967;50.852;4.400;2023-04-16T03:44:33;14.10;99.90
23579;DHT22;11967;50.852;4.400;2023-04-16T03:46:59;14.00;99.90
23579;DHT22;11967;50.852;4.400;2023-04-16T03:49:25;14.00;99.90
23579;DHT22;11967;50.852;4.400;2023-04-16T03:51:51;14.00;99.90
23579;DHT22;11967;50.852;4.400;2023-04-16T03:54:17;14.00;99.90
23579;DHT22;11967;50.852;4.400;2023-04-16T03:56:42;14.00;99.90
23579;DHT22;11967;50.852;4.400;2023-04-16T03:59:08;14.00;99.90
23579;DHT22;11967;50.852;4.400;2023-04-16T04:01:34;13.90;99.90
23579;DHT22;11967;50.852;4.400;2023-04-16T04:04:00;13.80;99.90
23579;DHT22;11967;50.852;4.400;2023-04-16T04:06:26;13.80;99.90
23579;DHT22;11967;50.852;4.400;2023-04-16T04:08:52;13.80;99.90
23579;DHT22;11967;50.852;4.400;2023-04-16T04:11:18;13.70;99.90
23579;DHT22;11967;50.852;4.400;2023-04-16T04:13:44;13.80;99.90
23579;DHT22;11967;50.852;4.400;2023-04-16T04:16:11;13.70;99.90
23579;DHT22;11967;50.852;4.400;2023-04-16T04:18:36;13.70;99.90
23579;DHT22;11967;50.852;4.400;2023-04-16T04:21:09;13.70;99.90
23579;DHT22;11967;50.852;4.400;2023-04-16T04:23:35;13.80;99.90
23579;DHT22;11967;50.852;4.400;2023-04-16T04:26:00;13.70;99.90
23579;DHT22;11967;50.852;4.400;2023-04-16T04:28:32;13.70;99.90
23579;DHT22;11967;50.852;4.400;2023-04-16T04:30:58;13.70;99.90
23579;DHT22;11967;50.852;4.400;2023-04-16T04:33:27;13.60;99.90
23579;DHT22;11967;50.852;4.400;2023-04-16T04:35:53;13.70;99.90
23579;DHT22;11967;50.852;4.400;2023-04-16T04:38:20;13.70;99.90
23579;DHT22;11967;50.852;4.400;2023-04-16T04:40:52;13.70;99.90
23579;DHT22;11967;50.852;4.400;2023-04-16T04:43:19;13.60;99.90
23579;DHT22;11967;50.852;4.400;2023-04-16T04:45:45;13.60;99.90
23579;DHT22;11967;50.852;4.400;2023-04-16T04:48:11;13.60;99.90
23579;DHT22;11967;50.852;4.400;2023-04-16T04:50:37;13.60;99.90
23579;DHT22;11967;50.852;4.400;2023-04-16T04:53:03;13.60;99.90
23579;DHT22;11967;50.852;4.400;2023-04-16T04:55:37;13.60;99.90
23579;DHT22;11967;50.852;4.400;2023-04-16T04:58:05;13.50;99.90
23579;DHT22;11967;50.852;4.400;2023-04-16T05:00:32;13.60;99.90
23579;DHT22;11967;50.852;4.400;2023-04-16T05:03:04;13.60;99.90
23579;DHT22;11967;50.852;4.400;2023-04-16T05:05:30;13.70;99.90
23579;DHT22;11967;50.852;4.400;2023-04-16T05:07:55;13.70;99.90
23579;DHT22;11967;50.852;4.400;2023-04-16T05:10:21;13.70;99.90
23579;DHT22;11967;50.852;4.400;2023-04-16T05:12:47;13.60;99.90
23579;DHT22;11967;50.852;4.400;2023-04-16T05:15:13;13.50;99.90
23579;DHT22;11967;50.852;4.400;2023-04-16T05:17:39;13.50;99.90
23579;DHT22;11967;50.852;4.400;2023-04-16T05:20:06;13.50;99.90
23579;DHT22;11967;50.852;4.400;2023-04-16T05:22:32;13.60;99.90
23579;DHT22;11967;50.852;4.400;2023-04-16T05:24:57;13.70;99.90
23579;DHT22;11967;50.852;4.400;2023-04-16T05:27:23;13.60;99.90
23579;DHT22;11967;50.852;4.400;2023-04-16T05:29:48;13.70;99.90
23579;DHT22;11967;50.852;4.400;2023-04-16T05:32:14;13.70;99.90
23579;DHT22;11967;50.852;4.400;2023-04-16T05:34:40;13.80;99.90
23579;DHT22;11967;50.852;4.400;2023-04-16T05:37:05;13.70;99.90
23579;DHT22;11967;50.852;4.400;2023-04-16T05:39:31;13.70;99.90
23579;DHT22;11967;50.852;4.400;2023-04-16T05:41:57;13.70;99.90
23579;DHT22;11967;50.852;4.400;2023-04-16T05:44:24;13.70;99.90
23579;DHT22;11967;50.852;4.400;2023-04-16T05:46:50;13.70;99.90
23579;DHT22;11967;50.852;4.400;2023-04-16T05:49:16;13.70;99.90
23579;DHT22;11967;50.852;4.400;2023-04-16T05:51:43;13.70;99.90
23579;DHT22;11967;50.852;4.400;2023-04-16T05:54:09;13.70;99.90
23579;DHT22;11967;50.852;4.400;2023-04-16T05:56:34;13.70;99.90
23579;DHT22;11967;50.852;4.400;2023-04-16T05:59:00;13.70;99.90
23579;DHT22;11967;50.852;4.400;2023-04-16T06:01:25;13.70;99.90
23579;DHT22;11967;50.852;4.400;2023-04-16T06:03:51;13.60;99.90
23579;DHT22;11967;50.852;4.400;2023-04-16T06:06:17;13.60;99.90
23579;DHT22;11967;50.852;4.400;2023-04-16T06:08:42;13.60;99.90
23579;DHT22;11967;50.852;4.400;2023-04-16T06:11:09;13.60;99.90
23579;DHT22;11967;50.852;4.400;2023-04-16T06:13:35;13.60;99.90
23579;DHT22;11967;50.852;4.400;2023-04-16T06:16:01;13.70;99.90
23579;DHT22;11967;50.852;4.400;2023-04-16T06:18:26;13.70;99.90
23579;DHT22;11967;50.852;4.400;2023-04-16T06:20:52;13.80;99.90
23579;DHT22;11967;50.852;4.400;2023-04-16T06:23:17;13.70;99.90
23579;DHT22;11967;50.852;4.400;2023-04-16T06:25:43;13.70;99.90
23579;DHT22;11967;50.852;4.400;2023-04-16T06:28:09;13.80;99.90
23579;DHT22;11967;50.852;4.400;2023-04-16T06:30:34;13.70;99.90
23579;DHT22;11967;50.852;4.400;2023-04-16T06:33:00;13.60;99.90
23579;DHT22;11967;50.852;4.400;2023-04-16T06:35:25;13.50;99.90
23579;DHT22;11967;50.852;4.400;2023-04-16T06:37:51;13.50;99.90
23579;DHT22;11967;50.852;4.400;2023-04-16T06:40:16;13.50;99.90
23579;DHT22;11967;50.852;4.400;2023-04-16T06:42:42;13.60;99.90
23579;DHT22;11967;50.852;4.400;2023-04-16T06:45:08;13.40;99.90
23579;DHT22;11967;50.852;4.400;2023-04-16T06:47:34;13.40;99.90
23579;DHT22;11967;50.852;4.400;2023-04-16T06:49:59;13.50;99.90
23579;DHT22;11967;50.852;4.400;2023-04-16T06:52:25;13.60;99.90
23579;DHT22;11967;50.852;4.400;2023-04-16T06:54:51;13.60;99.90
23579;DHT22;11967;50.852;4.400;2023-04-16T06:57:16;13.60;99.90
23579;DHT22;11967;50.852;4.400;2023-04-16T06:59:42;13.60;99.90
23579;DHT22;11967;50.852;4.400;2023-04-16T07:02:09;13.50;99.90
23579;DHT22;11967;50.852;4.400;2023-04-16T07:04:35;13.60;99.90
23579;DHT22;11967;50.852;4.400;2023-04-16T07:07:01;13.50;99.90
23579;DHT22;11967;50.852;4.400;2023-04-16T07:09:27;13.50;99.90
23579;DHT22;11967;50.852;4.400;2023-04-16T07:11:53;13.60;99.90
23579;DHT22;11967;50.852;4.400;2023-04-16T07:14:18;13.50;99.90
23579;DHT22;11967;50.852;4.400;2023-04-16T07:16:44;13.50;99.90
23579;DHT22;11967;50.852;4.400;2023-04-16T07:19:10;13.50;99.90
23579;DHT22;11967;50.852;4.400;2023-04-16T07:21:36;13.50;99.90
23579;DHT22;11967;50.852;4.400;2023-04-16T07:24:02;13.50;99.90
23579;DHT22;11967;50.852;4.400;2023-04-16T07:26:28;13.50;99.90
23579;DHT22;11967;50.852;4.400;2023-04-16T07:28:54;13.60;99.90
23579;DHT22;11967;50.852;4.400;2023-04-16T07:31:20;13.60;99.90
23579;DHT22;11967;50.852;4.400;2023-04-16T07:33:45;13.70;99.90
23579;DHT22;11967;50.852;4.400;2023-04-16T07:36:11;13.60;99.90
23579;DHT22;11967;50.852;4.400;2023-04-16T07:38:37;13.60;99.90
23579;DHT22;11967;50.852;4.400;2023-04-16T07:41:03;13.60;99.90
23579;DHT22;11967;50.852;4.400;2023-04-16T07:43:28;13.70;99.90
23579;DHT22;11967;50.852;4.400;2023-04-16T07:45:54;13.60;99.90
23579;DHT22;11967;50.852;4.400;2023-04-16T07:48:20;13.60;99.90
23579;DHT22;11967;50.852;4.400;2023-04-16T07:50:46;13.60;99.90
23579;DHT22;11967;50.852;4.400;2023-04-16T07:53:12;13.60;99.90
23579;DHT22;11967;50.852;4.400;2023-04-16T07:55:37;13.60;99.90
23579;DHT22;11967;50.852;4.400;2023-04-16T07:58:03;13.60;99.90
23579;DHT22;11967;50.852;4.400;2023-04-16T08:00:30;13.60;99.90
23579;DHT22;11967;50.852;4.400;2023-04-16T08:02:56;13.70;99.90
23579;DHT22;11967;50.852;4.400;2023-04-16T08:05:21;13.70;99.90
23579;DHT22;11967;50.852;4.400;2023-04-16T08:07:47;13.70;99.90
23579;DHT22;11967;50.852;4.400;2023-04-16T08:10:14;13.80;99.90
23579;DHT22;11967;50.852;4.400;2023-04-16T08:12:40;13.70;99.90
23579;DHT22;11967;50.852;4.400;2023-04-16T08:15:06;13.80;99.90
23579;DHT22;11967;50.852;4.400;2023-04-16T08:17:31;13.70;99.90
23579;DHT22;11967;50.852;4.400;2023-04-16T08:19:58;13.70;99.90
23579;DHT22;11967;50.852;4.400;2023-04-16T08:22:24;13.70;99.90
23579;DHT22;11967;50.852;4.400;2023-04-16T08:24:51;13.80;99.90
23579;DHT22;11967;50.852;4.400;2023-04-16T08:27:16;13.70;99.90
23579;DHT22;11967;50.852;4.400;2023-04-16T08:29:42;14.00;99.90
23579;DHT22;11967;50.852;4.400;2023-04-16T08:32:08;14.40;99.90
23579;DHT22;11967;50.852;4.400;2023-04-16T08:34:35;14.60;99.90
23579;DHT22;11967;50.852;4.400;2023-04-16T08:37:01;14.70;99.90
23579;DHT22;11967;50.852;4.400;2023-04-16T08:39:28;14.90;99.90
23579;DHT22;11967;50.852;4.400;2023-04-16T08:41:54;14.90;99.90
23579;DHT22;11967;50.852;4.400;2023-04-16T08:44:31;14.90;99.90
23579;DHT22;11967;50.852;4.400;2023-04-16T08:46:58;15.20;99.90
23579;DHT22;11967;50.852;4.400;2023-04-16T08:49:27;15.30;99.90
23579;DHT22;11967;50.852;4.400;2023-04-16T08:51:54;15.50;99.90
23579;DHT22;11967;50.852;4.400;2023-04-16T08:54:33;15.60;99.90
23579;DHT22;11967;50.852;4.400;2023-04-16T08:57:05;15.60;99.90
23579;DHT22;11967;50.852;4.400;2023-04-16T08:59:31;15.60;99.90
23579;DHT22;11967;50.852;4.400;2023-04-16T09:01:57;15.90;99.90
23579;DHT22;11967;50.852;4.400;2023-04-16T09:04:28;15.70;99.90
23579;DHT22;11967;50.852;4.400;2023-04-16T09:06:57;15.80;99.90
23579;DHT22;11967;50.852;4.400;2023-04-16T09:09:25;16.00;99.90
23579;DHT22;11967;50.852;4.400;2023-04-16T09:11:52;15.70;99.90
23579;DHT22;11967;50.852;4.400;2023-04-16T09:14:18;15.40;99.90
23579;DHT22;11967;50.852;4.400;2023-04-16T09:16:47;15.00;99.90
23579;DHT22;11967;50.852;4.400;2023-04-16T09:19:14;14.80;99.90
23579;DHT22;11967;50.852;4.400;2023-04-16T09:21:41;14.80;99.90
23579;DHT22;11967;50.852;4.400;2023-04-16T09:24:08;14.60;99.90
23579;DHT22;11967;50.852;4.400;2023-04-16T09:26:34;14.50;99.90
23579;DHT22;11967;50.852;4.400;2023-04-16T09:29:00;14.50;99.90
23579;DHT22;11967;50.852;4.400;2023-04-16T09:31:26;14.30;99.90
23579;DHT22;11967;50.852;4.400;2023-04-16T09:34:06;14.60;99.90
23579;DHT22;11967;50.852;4.400;2023-04-16T09:36:33;15.10;99.90
23579;DHT22;11967;50.852;4.400;2023-04-16T09:39:00;15.40;99.90
23579;DHT22;11967;50.852;4.400;2023-04-16T09:41:31;15.90;99.90
23579;DHT22;11967;50.852;4.400;2023-04-16T09:44:00;16.20;99.90
23579;DHT22;11967;50.852;4.400;2023-04-16T09:46:33;16.30;99.90
23579;DHT22;11967;50.852;4.400;2023-04-16T09:49:07;16.50;99.90
23579;DHT22;11967;50.852;4.400;2023-04-16T09:51:43;16.20;99.90
23579;DHT22;11967;50.852;4.400;2023-04-16T09:54:09;15.80;99.90
23579;DHT22;11967;50.852;4.400;2023-04-16T09:56:43;15.60;99.90
23579;DHT22;11967;50.852;4.400;2023-04-16T09:59:22;15.30;99.90
23579;DHT22;11967;50.852;4.400;2023-04-16T10:01:48;15.00;99.90
23579;DHT22;11967;50.852;4.400;2023-04-16T10:04:15;14.70;99.90
23579;DHT22;11967;50.852;4.400;2023-04-16T10:06:41;14.80;99.90
23579;DHT22;11967;50.852;4.400;2023-04-16T10:09:07;15.40;99.90
23579;DHT22;11967;50.852;4.400;2023-04-16T10:11:34;15.80;99.90
23579;DHT22;11967;50.852;4.400;2023-04-16T10:14:00;15.70;99.90
23579;DHT22;11967;50.852;4.400;2023-04-16T10:16:26;15.60;99.90
23579;DHT22;11967;50.852;4.400;2023-04-16T10:18:52;15.50;99.90
23579;DHT22;11967;50.852;4.400;2023-04-16T10:21:20;15.20;99.90
23579;DHT22;11967;50.852;4.400;2023-04-16T10:23:47;14.90;99.90
23579;DHT22;11967;50.852;4.400;2023-04-16T10:26:14;14.70;99.90
23579;DHT22;11967;50.852;4.400;2023-04-16T10:28:44;14.50;99.90
23579;DHT22;11967;50.852;4.400;2023-04-16T10:31:10;14.40;99.90
23579;DHT22;11967;50.852;4.400;2023-04-16T10:33:39;14.40;99.90
23579;DHT22;11967;50.852;4.400;2023-04-16T10:36:16;14.30;99.90
23579;DHT22;11967;50.852;4.400;2023-04-16T10:38:59;14.30;99.90
23579;DHT22;11967;50.852;4.400;2023-04-16T10:41:25;14.20;99.90
23579;DHT22;11967;50.852;4.400;2023-04-16T10:43:52;14.10;99.90
23579;DHT22;11967;50.852;4.400;2023-04-16T10:46:25;14.00;99.90
23579;DHT22;11967;50.852;4.400;2023-04-16T10:48:59;14.00;99.90
23579;DHT22;11967;50.852;4.400;2023-04-16T10:56:30;14.10;99.90
23579;DHT22;11967;50.852;4.400;2023-04-16T10:58:57;14.10;99.90
23579;DHT22;11967;50.852;4.400;2023-04-16T11:01:36;14.10;99.90
23579;DHT22;11967;50.852;4.400;2023-04-16T11:12:24;14.00;99.90
23579;DHT22;11967;50.852;4.400;2023-04-16T11:15:13;14.00;99.90
23579;DHT22;11967;50.852;4.400;2023-04-16T11:17:39;14.20;99.90
23579;DHT22;11967;50.852;4.400;2023-04-16T11:20:07;14.20;99.90
23579;DHT22;11967;50.852;4.400;2023-04-16T11:22:36;14.20;99.90
23579;DHT22;11967;50.852;4.400;2023-04-16T11:25:04;14.20;99.90
23579;DHT22;11967;50.852;4.400;2023-04-16T11:27:30;14.40;99.90
23579;DHT22;11967;50.852;4.400;2023-04-16T11:30:04;14.50;99.90
23579;DHT22;11967;50.852;4.400;2023-04-16T11:32:34;14.60;99.90
23579;DHT22;11967;50.852;4.400;2023-04-16T11:35:02;14.60;99.90
23579;DHT22;11967;50.852;4.400;2023-04-16T11:37:36;14.60;99.90
23579;DHT22;11967;50.852;4.400;2023-04-16T11:40:03;14.70;99.90
23579;DHT22;11967;50.852;4.400;2023-04-16T11:42:33;14.70;99.90
23579;DHT22;11967;50.852;4.400;2023-04-16T11:45:03;14.80;99.90
23579;DHT22;11967;50.852;4.400;2023-04-16T11:47:30;14.80;99.90
23579;DHT22;11967;50.852;4.400;2023-04-16T11:49:57;14.90;99.90
23579;DHT22;11967;50.852;4.400;2023-04-16T11:52:31;14.90;99.90
23579;DHT22;11967;50.852;4.400;2023-04-16T11:54:58;14.90;99.90
23579;DHT22;11967;50.852;4.400;2023-04-16T11:57:28;14.90;99.90
23579;DHT22;11967;50.852;4.400;2023-04-16T11:59:59;14.90;99.90
23579;DHT22;11967;50.852;4.400;2023-04-16T12:02:42;14.90;99.90
23579;DHT22;11967;50.852;4.400;2023-04-16T12:05:28;15.00;99.90
23579;DHT22;11967;50.852;4.400;2023-04-16T12:07:58;14.80;99.90
23579;DHT22;11967;50.852;4.400;2023-04-16T12:10:25;14.80;99.90
23579;DHT22;11967;50.852;4.400;2023-04-16T12:12:51;14.80;99.90
23579;DHT22;11967;50.852;4.400;2023-04-16T12:15:17;15.00;99.90
23579;DHT22;11967;50.852;4.400;2023-04-16T12:17:43;14.90;99.90
23579;DHT22;11967;50.852;4.400;2023-04-16T12:20:11;15.00;99.90
23579;DHT22;11967;50.852;4.400;2023-04-16T12:22:43;15.30;99.90
23579;DHT22;11967;50.852;4.400;2023-04-16T12:25:12;15.40;99.90
23579;DHT22;11967;50.852;4.400;2023-04-16T12:27:48;15.40;99.90
23579;DHT22;11967;50.852;4.400;2023-04-16T12:30:24;15.40;99.90
23579;DHT22;11967;50.852;4.400;2023-04-16T12:33:11;15.30;99.90
23579;DHT22;11967;50.852;4.400;2023-04-16T12:35:37;15.30;99.90
23579;DHT22;11967;50.852;4.400;2023-04-16T12:38:03;15.30;99.90
23579;DHT22;11967;50.852;4.400;2023-04-16T12:40:29;15.30;99.90
23579;DHT22;11967;50.852;4.400;2023-04-16T12:42:55;15.20;99.90
23579;DHT22;11967;50.852;4.400;2023-04-16T12:45:21;15.20;99.90
23579;DHT22;11967;50.852;4.400;2023-04-16T12:47:48;15.10;99.90
23579;DHT22;11967;50.852;4.400;2023-04-16T12:50:14;15.10;99.90
23579;DHT22;11967;50.852;4.400;2023-04-16T12:52:40;15.10;99.90
23579;DHT22;11967;50.852;4.400;2023-04-16T12:55:06;15.10;99.90
23579;DHT22;11967;50.852;4.400;2023-04-16T12:57:32;15.10;99.90
23579;DHT22;11967;50.852;4.400;2023-04-16T12:59:57;15.10;99.90
23579;DHT22;11967;50.852;4.400;2023-04-16T13:02:25;15.20;99.90
23579;DHT22;11967;50.852;4.400;2023-04-16T13:04:52;15.20;99.90
23579;DHT22;11967;50.852;4.400;2023-04-16T13:07:19;15.10;99.90
23579;DHT22;11967;50.852;4.400;2023-04-16T13:09:46;15.10;99.90
23579;DHT22;11967;50.852;4.400;2023-04-16T13:12:12;15.20;99.90
23579;DHT22;11967;50.852;4.400;2023-04-16T13:14:38;15.10;99.90
23579;DHT22;11967;50.852;4.400;2023-04-16T13:17:04;15.10;99.90
23579;DHT22;11967;50.852;4.400;2023-04-16T13:19:32;15.20;99.90
23579;DHT22;11967;50.852;4.400;2023-04-16T13:21:58;15.20;99.90
23579;DHT22;11967;50.852;4.400;2023-04-16T13:24:23;15.10;99.90
23579;DHT22;11967;50.852;4.400;2023-04-16T13:26:50;15.10;99.90
23579;DHT22;11967;50.852;4.400;2023-04-16T13:29:20;15.10;99.90
23579;DHT22;11967;50.852;4.400;2023-04-16T13:31:46;15.10;99.90
23579;DHT22;11967;50.852;4.400;2023-04-16T13:34:12;15.00;99.90
23579;DHT22;11967;50.852;4.400;2023-04-16T13:36:38;15.00;99.90
23579;DHT22;11967;50.852;4.400;2023-04-16T13:39:05;15.10;99.90
23579;DHT22;11967;50.852;4.400;2023-04-16T13:41:39;15.10;99.90
23579;DHT22;11967;50.852;4.400;2023-04-16T13:44:05;15.20;99.90
23579;DHT22;11967;50.852;4.400;2023-04-16T13:46:33;15.20;99.90
23579;DHT22;11967;50.852;4.400;2023-04-16T13:48:59;15.10;99.90
23579;DHT22;11967;50.852;4.400;2023-04-16T13:51:25;15.10;99.90
23579;DHT22;11967;50.852;4.400;2023-04-16T13:53:53;15.00;99.90
23579;DHT22;11967;50.852;4.400;2023-04-16T13:56:23;15.00;99.90
23579;DHT22;11967;50.852;4.400;2023-04-16T13:58:49;15.00;99.90
23579;DHT22;11967;50.852;4.400;2023-04-16T14:01:15;15.00;99.90
23579;DHT22;11967;50.852;4.400;2023-04-16T14:03:41;15.10;99.90
23579;DHT22;11967;50.852;4.400;2023-04-16T14:06:07;15.20;99.90
23579;DHT22;11967;50.852;4.400;2023-04-16T14:08:33;15.10;99.90
23579;DHT22;11967;50.852;4.400;2023-04-16T14:10:59;15.10;99.90
23579;DHT22;11967;50.852;4.400;2023-04-16T14:13:25;15.20;99.90
23579;DHT22;11967;50.852;4.400;2023-04-16T14:15:54;15.10;99.90
23579;DHT22;11967;50.852;4.400;2023-04-16T14:18:20;15.10;99.90
23579;DHT22;11967;50.852;4.400;2023-04-16T14:20:46;15.20;99.90
23579;DHT22;11967;50.852;4.400;2023-04-16T14:23:12;15.20;99.90
23579;DHT22;11967;50.852;4.400;2023-04-16T14:25:38;15.20;99.90
23579;DHT22;11967;50.852;4.400;2023-04-16T14:28:04;15.60;99.90
23579;DHT22;11967;50.852;4.400;2023-04-16T14:30:30;15.60;99.90
23579;DHT22;11967;50.852;4.400;2023-04-16T14:32:55;15.60;99.90
23579;DHT22;11967;50.852;4.400;2023-04-16T14:35:22;15.40;99.90
23579;DHT22;11967;50.852;4.400;2023-04-16T14:37:48;15.30;99.90
23579;DHT22;11967;50.852;4.400;2023-04-16T14:40:13;15.30;99.90
23579;DHT22;11967;50.852;4.400;2023-04-16T14:42:39;15.20;99.90
23579;DHT22;11967;50.852;4.400;2023-04-16T14:45:07;15.20;99.90
23579;DHT22;11967;50.852;4.400;2023-04-16T14:47:36;15.20;99.90
23579;DHT22;11967;50.852;4.400;2023-04-16T14:50:02;15.20;99.90
23579;DHT22;11967;50.852;4.400;2023-04-16T14:52:30;15.20;99.90
23579;DHT22;11967;50.852;4.400;2023-04-16T14:54:56;15.20;99.90
23579;DHT22;11967;50.852;4.400;2023-04-16T14:57:22;15.10;99.90
23579;DHT22;11967;50.852;4.400;2023-04-16T14:59:48;15.10;99.90
23579;DHT22;11967;50.852;4.400;2023-04-16T15:02:14;15.20;99.90
23579;DHT22;11967;50.852;4.400;2023-04-16T15:04:40;15.00;99.90
23579;DHT22;11967;50.852;4.400;2023-04-16T15:07:06;15.00;99.90
23579;DHT22;11967;50.852;4.400;2023-04-16T15:09:33;15.00;99.90
23579;DHT22;11967;50.852;4.400;2023-04-16T15:11:58;15.00;99.90
23579;DHT22;11967;50.852;4.400;2023-04-16T15:14:25;15.00;99.90
23579;DHT22;11967;50.852;4.400;2023-04-16T15:16:50;14.90;99.90
23579;DHT22;11967;50.852;4.400;2023-04-16T15:19:16;15.00;99.90
23579;DHT22;11967;50.852;4.400;2023-04-16T15:21:42;14.90;99.90
23579;DHT22;11967;50.852;4.400;2023-04-16T15:24:08;14.90;99.90
23579;DHT22;11967;50.852;4.400;2023-04-16T15:26:33;15.00;99.90
23579;DHT22;11967;50.852;4.400;2023-04-16T15:28:59;15.00;99.90
23579;DHT22;11967;50.852;4.400;2023-04-16T15:31:25;15.00;99.90
23579;DHT22;11967;50.852;4.400;2023-04-16T15:33:51;14.90;99.90
23579;DHT22;11967;50.852;4.400;2023-04-16T15:36:17;15.00;99.90
23579;DHT22;11967;50.852;4.400;2023-04-16T15:38:43;15.10;99.90
23579;DHT22;11967;50.852;4.400;2023-04-16T15:41:09;15.00;99.90
23579;DHT22;11967;50.852;4.400;2023-04-16T15:43:35;15.00;99.90